createdAt,value
2022-12-03T00:00:59.606Z,68.60
2022-12-03T00:02:01.755Z,68.00
2022-12-03T00:03:06.353Z,67.60
2022-12-03T00:04:08.606Z,67.80
2022-12-03T00:05:12.740Z,67.90
2022-12-03T00:06:14.861Z,67.80
2022-12-03T00:07:17.899Z,68.00
2022-12-03T00:08:19.961Z,68.00
2022-12-03T00:09:23.119Z,67.90
2022-12-03T00:10:25.438Z,67.70
2022-12-03T00:11:28.571Z,67.80
2022-12-03T00:12:30.730Z,67.60
2022-12-03T00:13:33.837Z,67.70
2022-12-03T00:14:38.850Z,67.70
2022-12-03T00:15:46.162Z,67.30
2022-12-03T00:16:48.380Z,67.50
2022-12-03T00:17:51.477Z,67.40
2022-12-03T00:18:54.981Z,67.40
2022-12-03T00:19:58.245Z,66.90
2022-12-03T00:21:00.323Z,66.90
2022-12-03T00:22:03.451Z,67.10
2022-12-03T00:23:05.561Z,67.20
2022-12-03T00:24:09.543Z,67.20
2022-12-03T00:25:11.633Z,67.00
2022-12-03T00:26:14.813Z,66.90
2022-12-03T00:27:16.913Z,66.90
2022-12-03T00:28:19.979Z,66.30
2022-12-03T00:29:22.061Z,66.80
2022-12-03T00:30:25.317Z,66.90
2022-12-03T00:31:27.549Z,67.00
2022-12-03T00:32:30.747Z,67.10
2022-12-03T00:33:32.857Z,67.10
2022-12-03T00:34:37.362Z,66.80
2022-12-03T00:35:39.453Z,66.60
2022-12-03T00:36:42.607Z,66.90
2022-12-03T00:37:44.715Z,66.90
2022-12-03T00:38:47.977Z,66.40
2022-12-03T00:39:50.395Z,66.60
2022-12-03T00:40:53.551Z,66.50
2022-12-03T00:41:55.643Z,66.40
2022-12-03T00:42:58.807Z,66.20
2022-12-03T00:44:00.938Z,66.40
2022-12-03T00:45:04.248Z,66.20
2022-12-03T00:46:06.650Z,66.40
2022-12-03T00:47:10.092Z,66.40
2022-12-03T00:48:12.246Z,66.40
2022-12-03T00:49:15.418Z,66.40
2022-12-03T00:50:18.914Z,66.50
2022-12-03T00:51:22.094Z,66.50
2022-12-03T00:52:24.301Z,66.50
2022-12-03T00:53:27.720Z,66.10
2022-12-03T00:54:32.006Z,66.30
2022-12-03T00:55:35.449Z,65.90
2022-12-03T00:56:37.528Z,66.20
2022-12-03T00:57:40.623Z,66.00
2022-12-03T00:58:42.739Z,65.50
2022-12-03T00:59:45.856Z,65.60
2022-12-03T01:00:47.953Z,65.50
2022-12-03T01:01:51.043Z,65.10
2022-12-03T01:02:53.556Z,65.40
2022-12-03T01:03:56.632Z,65.60
2022-12-03T01:04:58.806Z,65.60
2022-12-03T01:06:03.330Z,65.70
2022-12-03T01:07:05.472Z,65.90
2022-12-03T01:08:08.632Z,65.80
2022-12-03T01:09:10.836Z,65.80
2022-12-03T01:10:14.683Z,65.80
2022-12-03T01:11:35.182Z,65.00
2022-12-03T01:12:38.330Z,65.30
2022-12-03T01:13:40.414Z,65.30
2022-12-03T01:14:43.559Z,65.10
2022-12-03T01:15:45.796Z,65.10
2022-12-03T01:16:49.878Z,64.90
2022-12-03T01:17:54.179Z,65.20
2022-12-03T01:18:57.278Z,65.30
2022-12-03T01:19:59.386Z,65.40
2022-12-03T01:21:03.837Z,65.20
2022-12-03T01:22:05.939Z,65.10
2022-12-03T01:23:09.036Z,65.00
2022-12-03T01:24:11.821Z,65.00
2022-12-03T01:25:14.885Z,65.00
2022-12-03T01:26:17.043Z,64.70
2022-12-03T01:27:20.199Z,64.50
2022-12-03T01:28:22.326Z,64.30
2022-12-03T01:29:25.911Z,64.50
2022-12-03T01:30:28.046Z,64.20
2022-12-03T01:31:48.686Z,64.40
2022-12-03T01:32:51.814Z,64.10
2022-12-03T01:33:54.190Z,64.60
2022-12-03T01:34:57.594Z,64.80
2022-12-03T01:35:59.701Z,65.00
2022-12-03T01:37:04.428Z,66.00
2022-12-03T01:38:06.550Z,65.80
2022-12-03T01:39:09.824Z,65.70
2022-12-03T01:40:19.852Z,66.10
2022-12-03T01:41:25.613Z,66.40
2022-12-03T01:42:31.384Z,66.70
2022-12-03T01:43:34.585Z,66.90
2022-12-03T01:44:39.711Z,67.60
2022-12-03T01:45:42.928Z,67.30
2022-12-03T01:46:46.795Z,67.60
2022-12-03T01:47:50.140Z,67.40
2022-12-03T01:48:55.688Z,67.60
2022-12-03T01:50:03.841Z,67.30
2022-12-03T01:51:07.137Z,67.50
2022-12-03T01:52:14.633Z,67.50
2022-12-03T01:53:19.150Z,67.20
2022-12-03T01:54:27.277Z,67.30
2022-12-03T01:55:30.309Z,66.90
2022-12-03T01:56:33.457Z,65.50
2022-12-03T01:57:42.629Z,66.30
2022-12-03T01:58:46.881Z,66.90
2022-12-03T01:59:51.339Z,66.20
2022-12-03T02:00:53.514Z,66.50
2022-12-03T02:01:56.627Z,67.00
2022-12-03T02:03:02.916Z,66.30
2022-12-03T02:04:05.322Z,67.30
2022-12-03T02:05:17.897Z,67.70
2022-12-03T02:06:22.952Z,68.00
2022-12-03T02:07:30.721Z,68.20
2022-12-03T02:08:35.481Z,68.60
2022-12-03T02:09:38.556Z,68.70
2022-12-03T02:10:40.721Z,68.50
2022-12-03T02:11:47.784Z,68.50
2022-12-03T02:12:56.381Z,67.40
2022-12-03T02:14:05.025Z,67.10
2022-12-03T02:15:10.289Z,67.80
2022-12-03T02:16:12.593Z,67.90
2022-12-03T02:17:16.108Z,68.00
2022-12-03T02:18:19.138Z,67.80
2022-12-03T02:19:27.715Z,67.90
2022-12-03T02:20:35.958Z,68.00
2022-12-03T02:21:50.373Z,67.90
2022-12-03T02:23:03.413Z,67.70
2022-12-03T02:24:18.501Z,67.40
2022-12-03T02:25:27.077Z,67.60
2022-12-03T02:26:29.879Z,68.10
2022-12-03T02:27:33.137Z,67.50
2022-12-03T02:28:35.325Z,67.50
2022-12-03T02:29:38.657Z,67.50
2022-12-03T02:30:40.766Z,67.30
2022-12-03T02:31:44.852Z,67.30
2022-12-03T02:32:48.035Z,67.80
2022-12-03T02:33:51.595Z,67.20
2022-12-03T02:34:53.968Z,67.20
2022-12-03T02:36:03.114Z,67.10
2022-12-03T02:37:10.319Z,67.00
2022-12-03T02:38:17.973Z,66.80
2022-12-03T02:39:20.156Z,66.20
2022-12-03T02:40:28.324Z,66.20
2022-12-03T02:41:49.371Z,66.30
2022-12-03T02:42:56.773Z,66.40
2022-12-03T02:43:59.957Z,66.00
2022-12-03T02:45:07.530Z,66.20
2022-12-03T02:46:10.715Z,66.40
2022-12-03T02:47:13.122Z,66.40
2022-12-03T02:48:20.777Z,66.50
2022-12-03T02:49:22.917Z,66.30
2022-12-03T02:50:32.091Z,66.00
2022-12-03T02:51:35.532Z,66.20
2022-12-03T02:52:40.105Z,66.30
2022-12-03T02:53:46.987Z,66.30
2022-12-03T02:54:51.003Z,66.00
2022-12-03T02:55:58.749Z,66.00
2022-12-03T02:57:02.322Z,66.00
2022-12-03T02:58:05.875Z,65.70
2022-12-03T02:59:09.077Z,65.40
2022-12-03T03:00:12.562Z,65.50
2022-12-03T03:01:16.952Z,65.70
2022-12-03T03:02:19.896Z,65.70
2022-12-03T03:03:24.799Z,65.40
2022-12-03T03:04:27.357Z,65.50
2022-12-03T03:05:30.897Z,65.50
2022-12-03T03:06:33.597Z,65.50
2022-12-03T03:07:37.927Z,65.40
2022-12-03T03:08:41.495Z,65.10
2022-12-03T03:09:44.904Z,65.30
2022-12-03T03:10:48.427Z,65.50
2022-12-03T03:11:52.954Z,65.40
2022-12-03T03:12:56.731Z,65.20
2022-12-03T03:14:01.825Z,65.40
2022-12-03T03:15:05.283Z,64.90
2022-12-03T03:16:10.150Z,65.20
2022-12-03T03:17:12.610Z,65.30
2022-12-03T03:18:17.673Z,64.70
2022-12-03T03:19:19.886Z,64.30
2022-12-03T03:20:23.144Z,64.50
2022-12-03T03:21:25.283Z,64.50
2022-12-03T03:22:34.069Z,64.20
2022-12-03T03:23:36.257Z,63.90
2022-12-03T03:24:40.641Z,63.80
2022-12-03T03:25:47.063Z,64.00
2022-12-03T03:26:52.791Z,64.00
2022-12-03T03:27:54.900Z,63.70
2022-12-03T03:29:00.224Z,64.00
2022-12-03T03:30:03.420Z,64.40
2022-12-03T03:31:09.296Z,64.60
2022-12-03T03:32:11.600Z,64.50
2022-12-03T03:33:17.814Z,64.60
2022-12-03T03:34:20.464Z,65.50
2022-12-03T03:35:25.975Z,65.50
2022-12-03T03:36:28.309Z,65.80
2022-12-03T03:37:31.981Z,65.90
2022-12-03T03:38:35.608Z,66.30
2022-12-03T03:39:38.889Z,66.20
2022-12-03T03:40:41.403Z,66.50
2022-12-03T03:41:47.576Z,66.90
2022-12-03T03:42:51.410Z,67.10
2022-12-03T03:43:55.434Z,67.40
2022-12-03T03:44:59.032Z,67.50
2022-12-03T03:46:04.508Z,66.90
2022-12-03T03:47:07.227Z,67.50
2022-12-03T03:48:10.671Z,67.70
2022-12-03T03:49:13.497Z,66.90
2022-12-03T03:50:18.085Z,66.30
2022-12-03T03:51:21.038Z,66.70
2022-12-03T03:52:24.769Z,66.90
2022-12-03T03:53:27.495Z,66.90
2022-12-03T03:54:31.733Z,66.50
2022-12-03T03:55:36.062Z,65.80
2022-12-03T03:56:38.500Z,65.70
2022-12-03T03:57:41.898Z,65.80
2022-12-03T03:58:45.419Z,66.30
2022-12-03T03:59:48.724Z,66.60
2022-12-03T04:00:51.569Z,66.30
2022-12-03T04:01:54.867Z,65.50
2022-12-03T04:02:57.062Z,65.80
2022-12-03T04:04:01.189Z,65.60
2022-12-03T04:05:03.574Z,65.20
2022-12-03T04:06:07.112Z,65.40
2022-12-03T04:07:09.257Z,65.00
2022-12-03T04:08:12.495Z,65.30
2022-12-03T04:09:14.798Z,65.60
2022-12-03T04:10:35.708Z,65.50
2022-12-03T04:11:56.378Z,64.90
2022-12-03T04:12:59.578Z,65.40
2022-12-03T04:14:04.272Z,64.80
2022-12-03T04:15:08.048Z,65.00
2022-12-03T04:16:11.152Z,65.10
2022-12-03T04:17:13.416Z,64.80
2022-12-03T04:18:33.917Z,64.60
2022-12-03T04:19:37.110Z,64.10
2022-12-03T04:20:39.635Z,64.90
2022-12-03T04:21:59.314Z,64.80
2022-12-03T04:23:02.364Z,64.40
2022-12-03T04:24:06.714Z,65.10
2022-12-03T04:25:29.558Z,65.40
2022-12-03T04:26:50.108Z,65.70
2022-12-03T04:28:10.838Z,65.80
2022-12-03T04:29:15.413Z,64.90
2022-12-03T04:30:17.613Z,64.80
2022-12-03T04:31:37.323Z,65.00
2022-12-03T04:32:57.938Z,65.10
2022-12-03T04:34:21.049Z,64.70
2022-12-03T04:35:41.736Z,64.90
2022-12-03T04:36:44.945Z,65.00
2022-12-03T04:37:47.053Z,65.00
2022-12-03T04:38:50.089Z,65.00
2022-12-03T04:39:53.351Z,65.20
2022-12-03T04:41:01.362Z,65.20
2022-12-03T04:42:05.720Z,65.30
2022-12-03T04:43:07.889Z,65.20
2022-12-03T04:44:28.332Z,65.80
2022-12-03T04:45:32.854Z,65.50
2022-12-03T04:46:35.011Z,65.10
2022-12-03T04:47:39.984Z,64.90
2022-12-03T04:48:42.336Z,64.90
2022-12-03T04:49:47.423Z,65.10
2022-12-03T04:50:49.616Z,65.30
2022-12-03T04:51:52.734Z,65.20
2022-12-03T04:52:54.846Z,65.20
2022-12-03T04:53:57.939Z,64.80
2022-12-03T04:55:00.101Z,65.50
2022-12-03T04:56:03.193Z,65.10
2022-12-03T04:57:07.085Z,64.60
2022-12-03T04:58:10.868Z,64.30
2022-12-03T04:59:16.350Z,64.70
2022-12-03T05:00:20.396Z,65.20
2022-12-03T05:01:24.107Z,65.50
2022-12-03T05:02:27.372Z,65.70
2022-12-03T05:03:29.569Z,64.70
2022-12-03T05:04:32.828Z,64.80
2022-12-03T05:05:35.006Z,64.90
2022-12-03T05:06:38.191Z,64.80
2022-12-03T05:07:40.375Z,64.80
2022-12-03T05:08:43.522Z,64.70
2022-12-03T05:09:45.656Z,64.80
2022-12-03T05:10:48.722Z,64.70
2022-12-03T05:11:50.893Z,64.80
2022-12-03T05:12:54.007Z,65.00
2022-12-03T05:13:56.173Z,64.80
2022-12-03T05:14:59.265Z,64.80
2022-12-03T05:16:01.450Z,64.60
2022-12-03T05:17:05.983Z,64.00
2022-12-03T05:18:23.347Z,63.60
2022-12-03T05:19:46.434Z,63.70
2022-12-03T05:20:53.188Z,64.00
2022-12-03T05:21:55.862Z,63.70
2022-12-03T05:22:58.965Z,63.80
2022-12-03T05:24:01.896Z,63.90
2022-12-03T05:25:05.751Z,64.00
2022-12-03T05:26:08.209Z,64.00
2022-12-03T05:27:11.347Z,63.80
2022-12-03T05:28:13.492Z,62.90
2022-12-03T05:29:16.599Z,63.20
2022-12-03T05:30:18.826Z,63.30
2022-12-03T05:31:21.948Z,64.00
2022-12-03T05:32:25.456Z,64.00
2022-12-03T05:33:28.613Z,64.00
2022-12-03T05:34:31.795Z,64.00
2022-12-03T05:35:33.985Z,63.80
2022-12-03T05:36:37.085Z,63.90
2022-12-03T05:37:39.351Z,63.80
2022-12-03T05:38:42.451Z,63.90
2022-12-03T05:39:44.564Z,63.90
2022-12-03T05:40:47.682Z,63.80
2022-12-03T05:42:08.209Z,64.40
2022-12-03T05:43:10.498Z,64.50
2022-12-03T05:44:16.248Z,64.60
2022-12-03T05:45:24.457Z,64.80
2022-12-03T05:46:27.742Z,65.10
2022-12-03T05:47:31.318Z,65.20
2022-12-03T05:48:34.467Z,65.40
2022-12-03T05:49:36.597Z,65.60
2022-12-03T05:50:43.832Z,65.80
2022-12-03T05:51:46.028Z,65.70
2022-12-03T05:52:49.343Z,65.80
2022-12-03T05:53:51.402Z,65.90
2022-12-03T05:54:54.733Z,66.00
2022-12-03T05:55:57.035Z,66.00
2022-12-03T05:57:00.211Z,65.70
2022-12-03T05:58:02.967Z,65.70
2022-12-03T05:59:06.086Z,65.10
2022-12-03T06:00:14.341Z,65.30
2022-12-03T06:01:17.459Z,65.10
2022-12-03T06:02:19.693Z,65.40
2022-12-03T06:03:24.287Z,65.90
2022-12-03T06:04:26.497Z,66.50
2022-12-03T06:05:29.612Z,66.90
2022-12-03T06:06:31.836Z,66.80
2022-12-03T06:07:35.045Z,67.30
2022-12-03T06:08:39.182Z,67.10
2022-12-03T06:09:41.415Z,66.60
2022-12-03T06:10:44.570Z,66.60
2022-12-03T06:11:46.738Z,66.30
2022-12-03T06:12:49.898Z,67.10
2022-12-03T06:13:52.075Z,67.00
2022-12-03T06:14:55.863Z,66.50
2022-12-03T06:15:58.290Z,66.70
2022-12-03T06:17:01.480Z,66.60
2022-12-03T06:18:03.759Z,66.70
2022-12-03T06:19:08.204Z,66.70
2022-12-03T06:20:14.496Z,66.80
2022-12-03T06:21:17.616Z,66.10
2022-12-03T06:22:20.425Z,65.90
2022-12-03T06:23:23.504Z,65.70
2022-12-03T06:24:25.736Z,65.80
2022-12-03T06:25:28.909Z,66.00
2022-12-03T06:26:31.013Z,66.30
2022-12-03T06:27:34.115Z,66.00
2022-12-03T06:28:36.186Z,65.90
2022-12-03T06:29:39.594Z,65.80
2022-12-03T06:30:41.837Z,65.40
2022-12-03T06:31:44.950Z,65.70
2022-12-03T06:32:48.105Z,65.70
2022-12-03T06:33:50.266Z,65.90
2022-12-03T06:34:55.052Z,65.30
2022-12-03T06:35:57.480Z,65.50
2022-12-03T06:37:00.641Z,65.50
2022-12-03T06:38:02.892Z,64.80
2022-12-03T06:39:06.058Z,65.30
2022-12-03T06:40:09.372Z,65.70
2022-12-03T06:41:12.466Z,65.80
2022-12-03T06:42:14.591Z,65.80
2022-12-03T06:43:17.684Z,65.80
2022-12-03T06:44:20.029Z,65.80
2022-12-03T06:45:23.115Z,65.50
2022-12-03T06:46:25.416Z,65.70
2022-12-03T06:47:28.627Z,65.30
2022-12-03T06:48:30.718Z,65.60
2022-12-03T06:49:33.928Z,65.70
2022-12-03T06:50:37.436Z,65.60
2022-12-03T06:51:40.828Z,65.20
2022-12-03T06:52:43.014Z,65.50
2022-12-03T06:53:46.144Z,65.30
2022-12-03T06:54:48.290Z,65.30
2022-12-03T06:55:51.475Z,65.50
2022-12-03T06:56:54.615Z,65.60
2022-12-03T06:57:56.833Z,65.70
2022-12-03T06:58:59.959Z,65.50
2022-12-03T07:00:03.521Z,65.50
2022-12-03T07:01:05.940Z,65.80
2022-12-03T07:02:09.123Z,65.90
2022-12-03T07:03:11.370Z,65.60
2022-12-03T07:04:14.644Z,65.10
2022-12-03T07:05:17.453Z,65.40
2022-12-03T07:06:22.059Z,66.30
2022-12-03T07:07:24.325Z,65.70
2022-12-03T07:08:27.914Z,66.30
2022-12-03T07:09:30.009Z,66.20
2022-12-03T07:10:33.228Z,65.90
2022-12-03T07:11:40.380Z,66.10
2022-12-03T07:12:43.573Z,66.30
2022-12-03T07:13:45.648Z,66.10
2022-12-03T07:14:48.717Z,66.70
2022-12-03T07:15:50.844Z,66.30
2022-12-03T07:16:54.403Z,66.10
2022-12-03T07:17:56.491Z,66.20
2022-12-03T07:18:59.647Z,65.60
2022-12-03T07:20:04.571Z,65.40
2022-12-03T07:21:06.704Z,65.90
2022-12-03T07:22:11.188Z,65.80
2022-12-03T07:23:13.252Z,65.70
2022-12-03T07:24:16.333Z,65.70
2022-12-03T07:25:23.086Z,65.50
2022-12-03T07:26:27.286Z,65.80
2022-12-03T07:27:30.408Z,65.30
2022-12-03T07:28:32.535Z,65.10
2022-12-03T07:29:35.672Z,64.40
2022-12-03T07:30:37.771Z,64.60
2022-12-03T07:31:40.952Z,64.80
2022-12-03T07:32:43.137Z,65.00
2022-12-03T07:33:46.670Z,65.00
2022-12-03T07:34:48.825Z,65.10
2022-12-03T07:35:51.960Z,64.40
2022-12-03T07:36:55.100Z,64.30
2022-12-03T07:37:58.529Z,64.70
2022-12-03T07:39:01.673Z,64.40
2022-12-03T07:40:04.391Z,64.10
2022-12-03T07:41:07.884Z,64.40
2022-12-03T07:42:11.025Z,64.20
2022-12-03T07:43:13.247Z,63.90
2022-12-03T07:44:16.420Z,64.10
2022-12-03T07:45:18.574Z,64.20
2022-12-03T07:46:21.778Z,64.10
2022-12-03T07:47:23.959Z,64.20
2022-12-03T07:48:27.148Z,64.20
2022-12-03T07:49:29.331Z,64.30
2022-12-03T07:50:32.475Z,64.20
2022-12-03T07:51:35.649Z,64.50
2022-12-03T07:52:37.813Z,65.00
2022-12-03T07:53:42.287Z,64.10
2022-12-03T07:54:44.552Z,64.40
2022-12-03T07:55:47.726Z,64.50
2022-12-03T07:56:50.323Z,64.40
2022-12-03T07:57:53.619Z,64.60
2022-12-03T07:58:56.890Z,64.80
2022-12-03T07:59:58.984Z,64.80
2022-12-03T08:01:02.173Z,64.80
2022-12-03T08:02:04.513Z,63.80
2022-12-03T08:03:07.696Z,63.80
2022-12-03T08:04:11.494Z,64.60
2022-12-03T08:05:14.778Z,64.80
2022-12-03T08:06:17.889Z,64.90
2022-12-03T08:07:19.992Z,64.70
2022-12-03T08:08:23.034Z,64.10
2022-12-03T08:09:26.586Z,64.30
2022-12-03T08:10:29.843Z,64.20
2022-12-03T08:11:34.378Z,64.00
2022-12-03T08:12:42.625Z,64.50
2022-12-03T08:13:45.712Z,64.40
2022-12-03T08:14:47.933Z,64.10
2022-12-03T08:15:51.018Z,64.50
2022-12-03T08:16:53.205Z,64.50
2022-12-03T08:17:59.691Z,64.80
2022-12-03T08:19:06.848Z,65.20
2022-12-03T08:20:15.291Z,64.90
2022-12-03T08:21:20.481Z,65.20
2022-12-03T08:22:22.641Z,65.50
2022-12-03T08:23:27.447Z,65.20
2022-12-03T08:24:30.969Z,65.00
2022-12-03T08:25:34.660Z,64.60
2022-12-03T08:26:37.782Z,64.80
2022-12-03T08:27:40.096Z,64.60
2022-12-03T08:28:43.297Z,65.00
2022-12-03T08:29:46.334Z,65.00
2022-12-03T08:31:02.064Z,65.10
2022-12-03T08:32:11.453Z,65.00
2022-12-03T08:33:21.817Z,64.90
2022-12-03T08:34:29.595Z,64.80
2022-12-03T08:35:32.433Z,65.00
2022-12-03T08:36:36.482Z,65.20
2022-12-03T08:37:38.667Z,65.20
2022-12-03T08:38:41.864Z,65.50
2022-12-03T08:39:49.371Z,65.90
2022-12-03T08:40:52.930Z,66.60
2022-12-03T08:42:18.381Z,66.40
2022-12-03T08:43:24.226Z,66.50
2022-12-03T08:44:28.535Z,66.20
2022-12-03T08:45:42.054Z,66.40
2022-12-03T08:46:45.968Z,66.30
2022-12-03T08:47:48.072Z,66.70
2022-12-03T08:48:51.323Z,66.90
2022-12-03T08:49:58.059Z,66.80
2022-12-03T08:51:04.923Z,66.90
2022-12-03T08:52:13.632Z,66.70
2022-12-03T08:53:30.483Z,66.80
2022-12-03T08:54:33.617Z,66.90
2022-12-03T08:55:39.820Z,66.80
2022-12-03T08:56:43.886Z,66.20
2022-12-03T08:57:46.095Z,66.30
2022-12-03T08:58:52.645Z,66.40
2022-12-03T08:59:59.504Z,66.30
2022-12-03T09:01:28.344Z,65.50
2022-12-03T09:02:34.778Z,65.70
2022-12-03T09:03:38.595Z,65.70
2022-12-03T09:04:47.334Z,65.50
2022-12-03T09:05:49.469Z,65.10
2022-12-03T09:06:52.791Z,65.20
2022-12-03T09:07:56.107Z,65.30
2022-12-03T09:09:01.205Z,65.40
2022-12-03T09:10:09.685Z,65.20
2022-12-03T09:11:13.534Z,65.20
2022-12-03T09:12:16.704Z,65.30
2022-12-03T09:13:18.855Z,65.10
2022-12-03T09:14:23.579Z,65.20
2022-12-03T09:15:25.786Z,64.90
2022-12-03T09:16:29.409Z,65.10
2022-12-03T09:17:31.633Z,64.80
2022-12-03T09:18:35.238Z,64.80
2022-12-03T09:19:44.254Z,64.30
2022-12-03T09:20:48.117Z,64.50
2022-12-03T09:21:51.337Z,64.80
2022-12-03T09:22:53.465Z,65.70
2022-12-03T09:23:56.608Z,64.80
2022-12-03T09:24:59.766Z,64.50
2022-12-03T09:26:01.956Z,64.80
2022-12-03T09:27:06.544Z,65.20
2022-12-03T09:28:10.260Z,65.80
2022-12-03T09:29:13.524Z,65.20
2022-12-03T09:30:16.333Z,64.40
2022-12-03T09:31:19.796Z,64.50
2022-12-03T09:32:22.203Z,64.70
2022-12-03T09:33:25.544Z,64.70
2022-12-03T09:34:27.637Z,64.00
2022-12-03T09:35:30.766Z,64.00
2022-12-03T09:36:32.942Z,64.40
2022-12-03T09:37:36.108Z,63.90
2022-12-03T09:38:41.848Z,64.00
2022-12-03T09:39:47.597Z,64.50
2022-12-03T09:40:49.829Z,64.50
2022-12-03T09:41:53.103Z,64.90
2022-12-03T09:42:58.654Z,64.90
2022-12-03T09:44:04.751Z,65.00
2022-12-03T09:45:12.201Z,64.80
2022-12-03T09:46:15.536Z,64.20
2022-12-03T09:47:19.615Z,64.10
2022-12-03T09:48:22.760Z,63.80
2022-12-03T09:49:25.973Z,63.80
2022-12-03T09:50:28.559Z,63.90
2022-12-03T09:51:34.869Z,64.20
2022-12-03T09:52:38.063Z,64.80
2022-12-03T09:53:41.873Z,64.20
2022-12-03T09:54:47.279Z,64.20
2022-12-03T09:55:51.522Z,64.00
2022-12-03T09:56:56.350Z,63.70
2022-12-03T09:58:00.741Z,63.90
2022-12-03T09:59:07.814Z,63.80
2022-12-03T10:00:18.687Z,63.70
2022-12-03T10:01:21.171Z,63.30
2022-12-03T10:02:30.465Z,63.00
2022-12-03T10:03:33.754Z,63.00
2022-12-03T10:04:36.141Z,63.30
2022-12-03T10:05:45.100Z,63.00
2022-12-03T10:06:51.639Z,63.00
2022-12-03T10:07:58.665Z,63.10
2022-12-03T10:09:02.260Z,63.10
2022-12-03T10:10:08.436Z,63.40
2022-12-03T10:11:11.600Z,64.00
2022-12-03T10:12:16.238Z,63.90
2022-12-03T10:13:26.018Z,64.20
2022-12-03T10:14:30.070Z,64.00
2022-12-03T10:15:32.797Z,64.00
2022-12-03T10:16:40.291Z,64.20
2022-12-03T10:17:43.095Z,64.30
2022-12-03T10:18:51.751Z,64.40
2022-12-03T10:19:59.585Z,64.40
2022-12-03T10:21:02.127Z,64.20
2022-12-03T10:22:05.360Z,64.00
2022-12-03T10:23:07.718Z,64.00
2022-12-03T10:24:26.540Z,64.20
2022-12-03T10:25:28.775Z,63.90
2022-12-03T10:26:41.689Z,64.30
2022-12-03T10:28:00.926Z,64.50
2022-12-03T10:29:15.084Z,64.10
2022-12-03T10:30:23.544Z,64.40
2022-12-03T10:31:37.391Z,64.10
2022-12-03T10:32:42.602Z,64.50
2022-12-03T10:33:47.389Z,64.80
2022-12-03T10:34:49.536Z,64.90
2022-12-03T10:35:52.699Z,64.50
2022-12-03T10:37:18.177Z,64.00
2022-12-03T10:38:23.193Z,64.10
2022-12-03T10:39:26.382Z,64.40
2022-12-03T10:40:31.647Z,64.40
2022-12-03T10:41:33.959Z,64.50
2022-12-03T10:42:40.115Z,64.50
2022-12-03T10:43:42.600Z,64.90
2022-12-03T10:44:47.499Z,65.00
2022-12-03T10:45:51.403Z,65.20
2022-12-03T10:47:08.028Z,65.40
2022-12-03T10:48:17.310Z,65.30
2022-12-03T10:49:20.561Z,65.00
2022-12-03T10:50:23.926Z,65.60
2022-12-03T10:51:27.201Z,65.10
2022-12-03T10:52:30.145Z,65.00
2022-12-03T10:53:35.788Z,64.70
2022-12-03T10:54:38.941Z,64.60
2022-12-03T10:55:45.040Z,64.70
2022-12-03T10:56:49.299Z,65.20
2022-12-03T10:57:52.952Z,64.70
2022-12-03T10:58:57.013Z,64.20
2022-12-03T11:00:00.729Z,64.30
2022-12-03T11:01:10.323Z,64.40
2022-12-03T11:02:21.985Z,64.30
2022-12-03T11:03:25.917Z,64.40
2022-12-03T11:04:33.850Z,64.30
2022-12-03T11:05:36.068Z,64.30
2022-12-03T11:06:39.422Z,64.00
2022-12-03T11:07:44.810Z,63.90
2022-12-03T11:08:56.780Z,63.80
2022-12-03T11:10:02.666Z,63.50
2022-12-03T11:11:09.407Z,63.70
2022-12-03T11:12:21.128Z,63.50
2022-12-03T11:13:51.949Z,63.80
2022-12-03T11:15:08.447Z,63.80
2022-12-03T11:16:11.060Z,63.80
2022-12-03T11:17:14.323Z,63.80
2022-12-03T11:18:50.586Z,63.90
2022-12-03T11:19:53.809Z,63.90
2022-12-03T11:21:03.037Z,63.30
2022-12-03T11:22:25.005Z,62.90
2022-12-03T11:24:11.092Z,63.40
2022-12-03T11:25:55.988Z,63.60
2022-12-03T11:27:29.262Z,64.00
2022-12-03T11:28:53.381Z,64.10
2022-12-03T11:30:01.860Z,63.80
2022-12-03T11:31:11.705Z,64.10
2022-12-03T11:33:04.575Z,64.10
2022-12-03T11:34:49.759Z,64.00
2022-12-03T11:36:15.347Z,64.00
2022-12-03T11:37:29.159Z,64.60
2022-12-03T11:38:54.164Z,64.00
2022-12-03T11:40:34.759Z,64.20
2022-12-03T11:41:41.236Z,64.50
2022-12-03T11:42:46.008Z,64.70
2022-12-03T11:44:34.132Z,64.80
2022-12-03T11:45:39.318Z,64.70
2022-12-03T11:46:46.077Z,65.30
2022-12-03T11:48:04.118Z,65.50
2022-12-03T11:49:34.777Z,65.20
2022-12-03T11:50:40.605Z,65.50
2022-12-03T11:51:45.761Z,65.80
2022-12-03T11:52:54.456Z,65.80
2022-12-03T11:53:59.478Z,65.70
2022-12-03T11:55:16.931Z,65.60
2022-12-03T11:56:24.813Z,65.70
2022-12-03T11:57:34.934Z,65.70
2022-12-03T11:58:42.915Z,65.80
2022-12-03T12:00:06.804Z,65.90
2022-12-03T12:01:10.483Z,66.00
2022-12-03T12:02:21.186Z,65.80
2022-12-03T12:03:32.855Z,65.60
2022-12-03T12:04:38.018Z,65.90
2022-12-03T12:05:41.457Z,66.50
2022-12-03T12:06:51.757Z,66.70
2022-12-03T12:07:58.833Z,66.20
2022-12-03T12:09:03.648Z,66.40
2022-12-03T12:10:07.779Z,66.30
2022-12-03T12:11:22.156Z,66.20
2022-12-03T12:12:32.090Z,66.70
2022-12-03T12:13:56.590Z,66.60
2022-12-03T12:14:59.873Z,67.00
2022-12-03T12:16:05.211Z,66.70
2022-12-03T12:17:34.380Z,66.70
2022-12-03T12:18:39.881Z,66.60
2022-12-03T12:19:46.424Z,66.30
2022-12-03T12:20:50.717Z,66.30
2022-12-03T12:21:54.098Z,66.10
2022-12-03T12:23:17.351Z,66.40
2022-12-03T12:24:46.823Z,66.60
2022-12-03T12:25:54.234Z,66.90
2022-12-03T12:26:57.886Z,66.60
2022-12-03T12:28:01.073Z,67.00
2022-12-03T12:29:03.401Z,67.00
2022-12-03T12:30:13.833Z,66.40
2022-12-03T12:31:17.080Z,66.30
2022-12-03T12:32:25.175Z,65.80
2022-12-03T12:33:29.829Z,65.90
2022-12-03T12:34:32.283Z,66.30
2022-12-03T12:35:36.763Z,66.40
2022-12-03T12:36:39.420Z,66.40
2022-12-03T12:37:56.652Z,66.40
2022-12-03T12:39:02.018Z,66.30
2022-12-03T12:40:16.693Z,66.20
2022-12-03T12:41:20.050Z,66.80
2022-12-03T12:42:30.398Z,66.90
2022-12-03T12:43:34.935Z,66.50
2022-12-03T12:44:37.077Z,66.80
2022-12-03T12:45:43.158Z,66.70
2022-12-03T12:46:48.720Z,66.90
2022-12-03T12:48:04.225Z,66.70
2022-12-03T12:49:12.338Z,67.10
2022-12-03T12:50:16.476Z,67.50
2022-12-03T12:51:20.179Z,67.40
2022-12-03T12:52:23.444Z,67.60
2022-12-03T12:53:28.287Z,67.50
2022-12-03T12:54:30.426Z,67.30
2022-12-03T12:55:33.498Z,67.10
2022-12-03T12:56:37.611Z,67.10
2022-12-03T12:57:39.857Z,67.10
2022-12-03T12:58:43.599Z,67.20
2022-12-03T12:59:45.961Z,66.80
2022-12-03T13:00:53.118Z,66.90
2022-12-03T13:01:56.985Z,66.70
2022-12-03T13:03:03.225Z,66.70
2022-12-03T13:04:14.841Z,66.60
2022-12-03T13:05:18.378Z,66.90
2022-12-03T13:06:26.944Z,66.70
2022-12-03T13:07:30.540Z,67.00
2022-12-03T13:08:40.592Z,66.80
2022-12-03T13:09:44.700Z,66.80
2022-12-03T13:10:51.526Z,67.00
2022-12-03T13:11:57.299Z,67.30
2022-12-03T13:13:02.539Z,66.90
2022-12-03T13:14:16.008Z,67.00
2022-12-03T13:15:36.619Z,67.50
2022-12-03T13:16:40.700Z,67.60
2022-12-03T13:17:43.100Z,67.50
2022-12-03T13:18:49.011Z,67.40
2022-12-03T13:20:01.949Z,67.20
2022-12-03T13:21:22.054Z,67.10
2022-12-03T13:22:26.086Z,67.30
2022-12-03T13:23:34.440Z,67.40
2022-12-03T13:24:39.767Z,67.60
2022-12-03T13:26:02.238Z,67.90
2022-12-03T13:27:22.940Z,67.60
2022-12-03T13:28:25.412Z,67.10
2022-12-03T13:29:29.535Z,66.50
2022-12-03T13:30:31.797Z,66.70
2022-12-03T13:31:43.497Z,67.30
2022-12-03T13:32:46.513Z,67.50
2022-12-03T13:33:49.624Z,67.40
2022-12-03T13:34:55.388Z,67.10
2022-12-03T13:35:57.506Z,67.00
2022-12-03T13:37:02.731Z,67.20
2022-12-03T13:38:15.432Z,66.80
2022-12-03T13:39:22.363Z,67.10
2022-12-03T13:40:27.787Z,67.60
2022-12-03T13:41:48.620Z,67.30
2022-12-03T13:42:53.093Z,66.60
2022-12-03T13:43:55.175Z,66.80
2022-12-03T13:44:58.353Z,67.10
2022-12-03T13:46:01.253Z,66.90
2022-12-03T13:47:15.198Z,66.70
2022-12-03T13:48:22.995Z,67.10
2022-12-03T13:49:26.153Z,66.90
2022-12-03T13:50:35.651Z,66.60
2022-12-03T13:51:38.857Z,66.70
2022-12-03T13:52:41.219Z,66.60
2022-12-03T13:53:44.424Z,66.50
2022-12-03T13:54:49.801Z,66.70
2022-12-03T13:55:56.562Z,67.00
2022-12-03T13:57:00.239Z,66.90
2022-12-03T13:58:02.330Z,66.90
2022-12-03T13:59:05.696Z,66.90
2022-12-03T14:00:09.183Z,66.70
2022-12-03T14:01:12.394Z,67.10
2022-12-03T14:02:15.754Z,66.80
2022-12-03T14:03:18.001Z,67.10
2022-12-03T14:04:21.080Z,66.60
2022-12-03T14:05:23.228Z,67.20
2022-12-03T14:06:27.767Z,67.00